sensor_id;sensor_type;location;lat;lon;timestamp;temperature;humidity
23102;DHT22;11720;51.214;22.574;2022-09-27T00:01:37;11.00;99.90
23102;DHT22;11720;51.214;22.574;2022-09-27T00:04:02;10.50;99.90
23102;DHT22;11720;51.214;22.574;2022-09-27T00:06:30;10.50;99.90
23102;DHT22;11720;51.214;22.574;2022-09-27T00:08:57;10.50;99.90
23102;DHT22;11720;51.214;22.574;2022-09-27T00:11:33;11.00;99.90
23102;DHT22;11720;51.214;22.574;2022-09-27T00:14:00;10.50;99.90
23102;DHT22;11720;51.214;22.574;2022-09-27T00:16:31;10.40;99.90
23102;DHT22;11720;51.214;22.574;2022-09-27T00:19:02;10.40;99.90
23102;DHT22;11720;51.214;22.574;2022-09-27T00:21:29;10.40;99.90
23102;DHT22;11720;51.214;22.574;2022-09-27T00:23:55;10.40;99.90
23102;DHT22;11720;51.214;22.574;2022-09-27T00:26:21;10.40;99.90
23102;DHT22;11720;51.214;22.574;2022-09-27T00:28:47;10.40;99.90
23102;DHT22;11720;51.214;22.574;2022-09-27T00:31:17;11.00;99.90
23102;DHT22;11720;51.214;22.574;2022-09-27T00:33:49;10.50;99.90
23102;DHT22;11720;51.214;22.574;2022-09-27T00:36:15;10.30;99.90
23102;DHT22;11720;51.214;22.574;2022-09-27T00:38:41;10.20;99.90
23102;DHT22;11720;51.214;22.574;2022-09-27T00:41:16;10.20;99.90
23102;DHT22;11720;51.214;22.574;2022-09-27T00:43:52;10.10;99.90
23102;DHT22;11720;51.214;22.574;2022-09-27T00:46:25;10.00;99.90
23102;DHT22;11720;51.214;22.574;2022-09-27T00:49:18;10.00;99.90
23102;DHT22;11720;51.214;22.574;2022-09-27T00:51:47;10.00;99.90
23102;DHT22;11720;51.214;22.574;2022-09-27T00:54:15;10.80;99.90
23102;DHT22;11720;51.214;22.574;2022-09-27T00:56:42;9.90;99.90
23102;DHT22;11720;51.214;22.574;2022-09-27T00:59:21;9.90;99.90
23102;DHT22;11720;51.214;22.574;2022-09-27T01:01:48;9.90;99.90
23102;DHT22;11720;51.214;22.574;2022-09-27T01:04:17;9.90;99.90
23102;DHT22;11720;51.214;22.574;2022-09-27T01:06:47;10.40;99.90
23102;DHT22;11720;51.214;22.574;2022-09-27T01:09:12;9.90;99.90
23102;DHT22;11720;51.214;22.574;2022-09-27T01:16:59;10.00;99.90
23102;DHT22;11720;51.214;22.574;2022-09-27T01:30:49;9.80;99.90
23102;DHT22;11720;51.214;22.574;2022-09-27T01:36:19;9.80;99.90
23102;DHT22;11720;51.214;22.574;2022-09-27T01:39:44;9.80;99.90
23102;DHT22;11720;51.214;22.574;2022-09-27T01:42:27;9.80;99.90
23102;DHT22;11720;51.214;22.574;2022-09-27T01:45:20;9.80;99.90
23102;DHT22;11720;51.214;22.574;2022-09-27T01:47:59;9.80;99.90
23102;DHT22;11720;51.214;22.574;2022-09-27T01:50:34;9.80;99.90
23102;DHT22;11720;51.214;22.574;2022-09-27T01:55:36;9.80;99.90
23102;DHT22;11720;51.214;22.574;2022-09-27T01:58:13;9.80;99.90
23102;DHT22;11720;51.214;22.574;2022-09-27T02:00:43;9.80;99.90
23102;DHT22;11720;51.214;22.574;2022-09-27T02:03:17;9.80;99.90
23102;DHT22;11720;51.214;22.574;2022-09-27T02:05:54;9.70;99.90
23102;DHT22;11720;51.214;22.574;2022-09-27T02:08:27;9.70;99.90
23102;DHT22;11720;51.214;22.574;2022-09-27T02:10:55;9.70;99.90
23102;DHT22;11720;51.214;22.574;2022-09-27T02:14:06;10.00;99.90
23102;DHT22;11720;51.214;22.574;2022-09-27T02:25:03;9.70;99.90
23102;DHT22;11720;51.214;22.574;2022-09-27T02:27:33;10.10;99.90
23102;DHT22;11720;51.214;22.574;2022-09-27T02:30:09;9.60;99.90
23102;DHT22;11720;51.214;22.574;2022-09-27T02:32:36;9.60;99.90
23102;DHT22;11720;51.214;22.574;2022-09-27T02:35:32;9.80;99.90
23102;DHT22;11720;51.214;22.574;2022-09-27T02:37:59;9.60;99.90
23102;DHT22;11720;51.214;22.574;2022-09-27T02:40:30;9.70;99.90
23102;DHT22;11720;51.214;22.574;2022-09-27T02:42:57;9.70;99.90
23102;DHT22;11720;51.214;22.574;2022-09-27T02:45:30;9.80;99.90
23102;DHT22;11720;51.214;22.574;2022-09-27T02:53:25;9.70;99.90
23102;DHT22;11720;51.214;22.574;2022-09-27T02:56:13;10.20;99.90
23102;DHT22;11720;51.214;22.574;2022-09-27T03:01:36;9.70;99.90
23102;DHT22;11720;51.214;22.574;2022-09-27T03:04:19;9.70;99.90
23102;DHT22;11720;51.214;22.574;2022-09-27T03:06:48;9.70;99.90
23102;DHT22;11720;51.214;22.574;2022-09-27T03:09:20;9.70;99.90
23102;DHT22;11720;51.214;22.574;2022-09-27T03:11:46;9.70;99.90
23102;DHT22;11720;51.214;22.574;2022-09-27T03:14:12;9.60;99.90
23102;DHT22;11720;51.214;22.574;2022-09-27T03:16:37;9.60;99.90
23102;DHT22;11720;51.214;22.574;2022-09-27T03:19:03;9.60;99.90
23102;DHT22;11720;51.214;22.574;2022-09-27T03:21:29;9.50;99.90
23102;DHT22;11720;51.214;22.574;2022-09-27T03:23:55;9.60;99.90
23102;DHT22;11720;51.214;22.574;2022-09-27T03:26:21;9.90;99.90
23102;DHT22;11720;51.214;22.574;2022-09-27T03:28:46;9.50;99.90
23102;DHT22;11720;51.214;22.574;2022-09-27T03:31:12;9.60;99.90
23102;DHT22;11720;51.214;22.574;2022-09-27T03:33:39;9.70;99.90
23102;DHT22;11720;51.214;22.574;2022-09-27T03:36:05;9.50;99.90
23102;DHT22;11720;51.214;22.574;2022-09-27T03:38:31;9.50;99.90
23102;DHT22;11720;51.214;22.574;2022-09-27T03:40:57;9.60;99.90
23102;DHT22;11720;51.214;22.574;2022-09-27T03:43:23;9.60;99.90
23102;DHT22;11720;51.214;22.574;2022-09-27T03:45:49;9.60;99.90
23102;DHT22;11720;51.214;22.574;2022-09-27T03:48:14;9.60;99.90
23102;DHT22;11720;51.214;22.574;2022-09-27T03:50:40;9.60;99.90
23102;DHT22;11720;51.214;22.574;2022-09-27T03:53:06;10.60;99.90
23102;DHT22;11720;51.214;22.574;2022-09-27T03:55:31;9.60;99.90
23102;DHT22;11720;51.214;22.574;2022-09-27T03:57:57;9.60;99.90
23102;DHT22;11720;51.214;22.574;2022-09-27T04:00:22;9.60;99.90
23102;DHT22;11720;51.214;22.574;2022-09-27T04:02:49;10.10;99.90
23102;DHT22;11720;51.214;22.574;2022-09-27T04:05:15;9.60;99.90
23102;DHT22;11720;51.214;22.574;2022-09-27T04:07:46;9.70;99.90
23102;DHT22;11720;51.214;22.574;2022-09-27T04:10:12;9.70;99.90
23102;DHT22;11720;51.214;22.574;2022-09-27T04:12:39;9.70;99.90
23102;DHT22;11720;51.214;22.574;2022-09-27T04:15:05;9.70;99.90
23102;DHT22;11720;51.214;22.574;2022-09-27T04:17:32;9.70;99.90
23102;DHT22;11720;51.214;22.574;2022-09-27T04:19:57;9.80;99.90
23102;DHT22;11720;51.214;22.574;2022-09-27T04:22:23;9.70;99.90
23102;DHT22;11720;51.214;22.574;2022-09-27T04:24:49;9.80;99.90
23102;DHT22;11720;51.214;22.574;2022-09-27T04:27:15;10.50;99.90
23102;DHT22;11720;51.214;22.574;2022-09-27T04:29:41;9.80;99.90
23102;DHT22;11720;51.214;22.574;2022-09-27T04:32:13;10.80;99.90
23102;DHT22;11720;51.214;22.574;2022-09-27T04:34:39;9.80;99.90
23102;DHT22;11720;51.214;22.574;2022-09-27T04:37:37;9.80;99.90
23102;DHT22;11720;51.214;22.574;2022-09-27T04:40:03;9.80;99.90
23102;DHT22;11720;51.214;22.574;2022-09-27T04:42:29;9.80;99.90
23102;DHT22;11720;51.214;22.574;2022-09-27T04:44:55;9.80;99.90
23102;DHT22;11720;51.214;22.574;2022-09-27T04:47:20;10.80;99.90
23102;DHT22;11720;51.214;22.574;2022-09-27T04:49:47;9.80;99.90
23102;DHT22;11720;51.214;22.574;2022-09-27T04:52:12;9.90;99.90
23102;DHT22;11720;51.214;22.574;2022-09-27T04:54:40;9.90;99.90
23102;DHT22;11720;51.214;22.574;2022-09-27T04:57:06;10.10;99.90
23102;DHT22;11720;51.214;22.574;2022-09-27T04:59:31;10.00;99.90
23102;DHT22;11720;51.214;22.574;2022-09-27T05:01:57;9.90;99.90
23102;DHT22;11720;51.214;22.574;2022-09-27T05:04:25;9.90;99.90
23102;DHT22;11720;51.214;22.574;2022-09-27T05:06:51;9.90;99.90
23102;DHT22;11720;51.214;22.574;2022-09-27T05:09:16;10.20;99.90
23102;DHT22;11720;51.214;22.574;2022-09-27T05:11:42;10.20;99.90
23102;DHT22;11720;51.214;22.574;2022-09-27T05:14:07;10.00;99.90
23102;DHT22;11720;51.214;22.574;2022-09-27T05:16:33;10.00;99.90
23102;DHT22;11720;51.214;22.574;2022-09-27T05:19:01;10.00;99.90
23102;DHT22;11720;51.214;22.574;2022-09-27T05:21:26;10.00;99.90
23102;DHT22;11720;51.214;22.574;2022-09-27T05:23:52;10.10;99.90
23102;DHT22;11720;51.214;22.574;2022-09-27T05:26:18;10.60;99.90
23102;DHT22;11720;51.214;22.574;2022-09-27T05:28:44;10.10;99.90
23102;DHT22;11720;51.214;22.574;2022-09-27T05:31:12;10.20;99.90
23102;DHT22;11720;51.214;22.574;2022-09-27T05:33:39;10.60;99.90
23102;DHT22;11720;51.214;22.574;2022-09-27T05:36:05;10.20;99.90
23102;DHT22;11720;51.214;22.574;2022-09-27T05:38:31;10.20;99.90
23102;DHT22;11720;51.214;22.574;2022-09-27T05:40:57;10.20;99.90
23102;DHT22;11720;51.214;22.574;2022-09-27T05:43:23;10.70;99.90
23102;DHT22;11720;51.214;22.574;2022-09-27T05:45:49;10.20;99.90
23102;DHT22;11720;51.214;22.574;2022-09-27T05:48:17;10.80;99.90
23102;DHT22;11720;51.214;22.574;2022-09-27T05:50:43;10.20;99.90
23102;DHT22;11720;51.214;22.574;2022-09-27T05:53:09;10.20;99.90
23102;DHT22;11720;51.214;22.574;2022-09-27T05:55:35;10.20;99.90
23102;DHT22;11720;51.214;22.574;2022-09-27T05:58:03;10.20;99.90
23102;DHT22;11720;51.214;22.574;2022-09-27T06:00:29;10.30;99.90
23102;DHT22;11720;51.214;22.574;2022-09-27T06:02:57;10.30;99.90
23102;DHT22;11720;51.214;22.574;2022-09-27T06:05:24;10.40;99.90
23102;DHT22;11720;51.214;22.574;2022-09-27T06:07:51;10.20;99.90
23102;DHT22;11720;51.214;22.574;2022-09-27T06:10:18;10.20;99.90
23102;DHT22;11720;51.214;22.574;2022-09-27T06:12:44;10.20;99.90
23102;DHT22;11720;51.214;22.574;2022-09-27T06:15:10;10.60;99.90
23102;DHT22;11720;51.214;22.574;2022-09-27T06:17:36;10.30;99.90
23102;DHT22;11720;51.214;22.574;2022-09-27T06:20:02;10.30;99.90
23102;DHT22;11720;51.214;22.574;2022-09-27T06:22:28;10.20;99.90
23102;DHT22;11720;51.214;22.574;2022-09-27T06:24:54;10.20;99.90
23102;DHT22;11720;51.214;22.574;2022-09-27T06:27:20;10.20;99.90
23102;DHT22;11720;51.214;22.574;2022-09-27T06:29:45;10.30;99.90
23102;DHT22;11720;51.214;22.574;2022-09-27T06:32:11;10.80;99.90
23102;DHT22;11720;51.214;22.574;2022-09-27T06:34:37;10.30;99.90
23102;DHT22;11720;51.214;22.574;2022-09-27T06:37:02;10.30;99.90
23102;DHT22;11720;51.214;22.574;2022-09-27T06:39:28;10.40;99.90
23102;DHT22;11720;51.214;22.574;2022-09-27T06:41:54;10.70;99.90
23102;DHT22;11720;51.214;22.574;2022-09-27T06:44:24;10.40;99.90
23102;DHT22;11720;51.214;22.574;2022-09-27T06:46:51;10.50;99.90
23102;DHT22;11720;51.214;22.574;2022-09-27T06:49:18;10.60;99.90
23102;DHT22;11720;51.214;22.574;2022-09-27T06:51:44;10.70;99.90
23102;DHT22;11720;51.214;22.574;2022-09-27T06:54:10;10.80;99.90
23102;DHT22;11720;51.214;22.574;2022-09-27T06:56:36;11.20;99.90
23102;DHT22;11720;51.214;22.574;2022-09-27T06:59:01;10.70;99.90
23102;DHT22;11720;51.214;22.574;2022-09-27T07:01:47;10.80;99.90
23102;DHT22;11720;51.214;22.574;2022-09-27T07:04:14;10.80;99.90
23102;DHT22;11720;51.214;22.574;2022-09-27T07:06:40;10.90;99.90
23102;DHT22;11720;51.214;22.574;2022-09-27T07:09:06;10.90;99.90
23102;DHT22;11720;51.214;22.574;2022-09-27T07:11:34;11.00;99.90
23102;DHT22;11720;51.214;22.574;2022-09-27T07:14:02;11.00;99.90
23102;DHT22;11720;51.214;22.574;2022-09-27T07:16:29;11.10;99.90
23102;DHT22;11720;51.214;22.574;2022-09-27T07:18:56;11.20;99.90
23102;DHT22;11720;51.214;22.574;2022-09-27T07:21:22;11.20;99.90
23102;DHT22;11720;51.214;22.574;2022-09-27T07:23:48;11.30;99.90
23102;DHT22;11720;51.214;22.574;2022-09-27T07:26:14;11.40;99.90
23102;DHT22;11720;51.214;22.574;2022-09-27T07:28:40;11.50;99.90
23102;DHT22;11720;51.214;22.574;2022-09-27T07:31:06;11.60;99.90
23102;DHT22;11720;51.214;22.574;2022-09-27T07:33:33;12.60;99.90
23102;DHT22;11720;51.214;22.574;2022-09-27T07:35:59;11.80;99.90
23102;DHT22;11720;51.214;22.574;2022-09-27T07:38:25;11.90;99.90
23102;DHT22;11720;51.214;22.574;2022-09-27T07:40:51;12.00;99.90
23102;DHT22;11720;51.214;22.574;2022-09-27T07:43:17;12.00;99.90
23102;DHT22;11720;51.214;22.574;2022-09-27T07:45:44;12.10;99.90
23102;DHT22;11720;51.214;22.574;2022-09-27T07:48:12;12.20;99.90
23102;DHT22;11720;51.214;22.574;2022-09-27T07:50:38;12.20;99.90
23102;DHT22;11720;51.214;22.574;2022-09-27T07:53:03;12.20;99.90
23102;DHT22;11720;51.214;22.574;2022-09-27T07:55:30;12.30;99.90
23102;DHT22;11720;51.214;22.574;2022-09-27T07:58:04;12.30;99.90
23102;DHT22;11720;51.214;22.574;2022-09-27T08:00:30;12.30;99.90
23102;DHT22;11720;51.214;22.574;2022-09-27T08:02:55;12.40;99.90
23102;DHT22;11720;51.214;22.574;2022-09-27T08:05:21;12.50;99.90
23102;DHT22;11720;51.214;22.574;2022-09-27T08:07:46;12.50;99.90
23102;DHT22;11720;51.214;22.574;2022-09-27T08:10:12;12.60;99.90
23102;DHT22;11720;51.214;22.574;2022-09-27T08:12:38;12.90;99.90
23102;DHT22;11720;51.214;22.574;2022-09-27T08:15:04;12.70;99.90
23102;DHT22;11720;51.214;22.574;2022-09-27T08:17:33;12.60;99.90
23102;DHT22;11720;51.214;22.574;2022-09-27T08:19:58;12.70;99.90
23102;DHT22;11720;51.214;22.574;2022-09-27T08:22:28;12.60;99.90
23102;DHT22;11720;51.214;22.574;2022-09-27T08:24:53;12.70;99.90
23102;DHT22;11720;51.214;22.574;2022-09-27T08:27:19;12.70;99.90
23102;DHT22;11720;51.214;22.574;2022-09-27T08:29:45;12.80;99.90
23102;DHT22;11720;51.214;22.574;2022-09-27T08:32:12;12.90;99.90
23102;DHT22;11720;51.214;22.574;2022-09-27T08:34:38;13.00;99.90
23102;DHT22;11720;51.214;22.574;2022-09-27T08:37:04;13.10;99.90
23102;DHT22;11720;51.214;22.574;2022-09-27T08:39:30;13.00;99.90
23102;DHT22;11720;51.214;22.574;2022-09-27T08:44:46;13.00;99.90
23102;DHT22;11720;51.214;22.574;2022-09-27T08:49:48;12.90;99.90
23102;DHT22;11720;51.214;22.574;2022-09-27T08:52:26;12.90;99.90
23102;DHT22;11720;51.214;22.574;2022-09-27T08:54:55;12.90;99.90
23102;DHT22;11720;51.214;22.574;2022-09-27T08:57:23;12.90;99.90
23102;DHT22;11720;51.214;22.574;2022-09-27T09:00:04;12.90;99.90
23102;DHT22;11720;51.214;22.574;2022-09-27T09:02:31;12.80;99.90
23102;DHT22;11720;51.214;22.574;2022-09-27T09:05:10;12.80;99.90
23102;DHT22;11720;51.214;22.574;2022-09-27T09:10:50;12.80;99.90
23102;DHT22;11720;51.214;22.574;2022-09-27T09:13:55;12.90;99.90
23102;DHT22;11720;51.214;22.574;2022-09-27T09:16:51;13.00;99.90
23102;DHT22;11720;51.214;22.574;2022-09-27T09:19:46;13.00;99.90
23102;DHT22;11720;51.214;22.574;2022-09-27T09:27:53;13.40;99.90
23102;DHT22;11720;51.214;22.574;2022-09-27T09:33:32;13.80;99.90
23102;DHT22;11720;51.214;22.574;2022-09-27T09:36:04;13.80;99.90
23102;DHT22;11720;51.214;22.574;2022-09-27T09:38:48;13.50;99.90
23102;DHT22;11720;51.214;22.574;2022-09-27T09:41:55;13.70;99.90
23102;DHT22;11720;51.214;22.574;2022-09-27T09:46:44;13.60;99.90
23102;DHT22;11720;51.214;22.574;2022-09-27T09:51:53;13.60;99.90
23102;DHT22;11720;51.214;22.574;2022-09-27T09:54:36;13.60;99.90
23102;DHT22;11720;51.214;22.574;2022-09-27T09:57:38;13.50;99.90
23102;DHT22;11720;51.214;22.574;2022-09-27T10:00:12;13.50;99.90
23102;DHT22;11720;51.214;22.574;2022-09-27T10:02:41;13.30;99.90
23102;DHT22;11720;51.214;22.574;2022-09-27T10:05:08;13.30;99.90
23102;DHT22;11720;51.214;22.574;2022-09-27T10:07:37;13.30;99.90
23102;DHT22;11720;51.214;22.574;2022-09-27T10:10:04;13.30;99.90
23102;DHT22;11720;51.214;22.574;2022-09-27T10:12:31;13.30;99.90
23102;DHT22;11720;51.214;22.574;2022-09-27T10:14:58;13.30;99.90
23102;DHT22;11720;51.214;22.574;2022-09-27T10:17:34;13.40;99.90
23102;DHT22;11720;51.214;22.574;2022-09-27T10:20:02;13.40;99.90
23102;DHT22;11720;51.214;22.574;2022-09-27T10:22:53;13.40;99.90
23102;DHT22;11720;51.214;22.574;2022-09-27T10:25:20;13.40;99.90
23102;DHT22;11720;51.214;22.574;2022-09-27T10:27:53;13.40;99.90
23102;DHT22;11720;51.214;22.574;2022-09-27T10:32:58;13.60;99.90
23102;DHT22;11720;51.214;22.574;2022-09-27T10:38:36;13.70;99.90
23102;DHT22;11720;51.214;22.574;2022-09-27T10:40:43;13.60;99.90
23102;DHT22;11720;51.214;22.574;2022-09-27T10:43:30;13.70;99.90
23102;DHT22;11720;51.214;22.574;2022-09-27T10:48:34;13.80;99.90
23102;DHT22;11720;51.214;22.574;2022-09-27T10:51:06;13.80;99.90
23102;DHT22;11720;51.214;22.574;2022-09-27T10:53:34;13.90;99.90
23102;DHT22;11720;51.214;22.574;2022-09-27T10:56:01;13.90;99.90
23102;DHT22;11720;51.214;22.574;2022-09-27T10:58:33;13.80;99.90
23102;DHT22;11720;51.214;22.574;2022-09-27T11:01:00;13.80;99.90
23102;DHT22;11720;51.214;22.574;2022-09-27T11:03:30;13.70;99.90
23102;DHT22;11720;51.214;22.574;2022-09-27T11:05:56;13.80;99.90
23102;DHT22;11720;51.214;22.574;2022-09-27T11:08:31;13.70;99.90
23102;DHT22;11720;51.214;22.574;2022-09-27T11:11:15;13.70;99.90
23102;DHT22;11720;51.214;22.574;2022-09-27T11:14:03;13.70;99.90
23102;DHT22;11720;51.214;22.574;2022-09-27T11:30:12;14.20;99.90
23102;DHT22;11720;51.214;22.574;2022-09-27T11:36:12;14.20;99.90
23102;DHT22;11720;51.214;22.574;2022-09-27T11:39:01;14.20;99.90
23102;DHT22;11720;51.214;22.574;2022-09-27T11:47:39;14.40;99.90
23102;DHT22;11720;51.214;22.574;2022-09-27T11:59:09;14.50;99.90
23102;DHT22;11720;51.214;22.574;2022-09-27T12:04:50;14.60;99.90
23102;DHT22;11720;51.214;22.574;2022-09-27T12:10:08;14.90;99.90
23102;DHT22;11720;51.214;22.574;2022-09-27T12:12:36;15.10;99.90
23102;DHT22;11720;51.214;22.574;2022-09-27T12:15:19;15.20;99.90
23102;DHT22;11720;51.214;22.574;2022-09-27T12:17:48;15.40;99.90
23102;DHT22;11720;51.214;22.574;2022-09-27T12:20:24;15.50;99.90
23102;DHT22;11720;51.214;22.574;2022-09-27T12:22:59;15.50;99.90
23102;DHT22;11720;51.214;22.574;2022-09-27T12:25:33;15.50;99.90
23102;DHT22;11720;51.214;22.574;2022-09-27T12:30:32;15.40;99.90
23102;DHT22;11720;51.214;22.574;2022-09-27T12:33:31;15.40;99.90
23102;DHT22;11720;51.214;22.574;2022-09-27T12:36:04;15.40;99.90
23102;DHT22;11720;51.214;22.574;2022-09-27T12:38:36;15.40;99.90
23102;DHT22;11720;51.214;22.574;2022-09-27T12:41:04;15.50;99.90
23102;DHT22;11720;51.214;22.574;2022-09-27T12:43:32;15.60;99.90
23102;DHT22;11720;51.214;22.574;2022-09-27T12:51:48;15.90;99.90
23102;DHT22;11720;51.214;22.574;2022-09-27T12:57:24;16.30;99.90
23102;DHT22;11720;51.214;22.574;2022-09-27T13:07:54;16.80;99.90
23102;DHT22;11720;51.214;22.574;2022-09-27T13:12:51;17.90;99.90
23102;DHT22;11720;51.214;22.574;2022-09-27T13:15:31;18.40;99.90
23102;DHT22;11720;51.214;22.574;2022-09-27T13:18:02;18.90;99.90
23102;DHT22;11720;51.214;22.574;2022-09-27T13:25:56;18.40;99.90
23102;DHT22;11720;51.214;22.574;2022-09-27T13:33:31;17.80;99.90
23102;DHT22;11720;51.214;22.574;2022-09-27T13:41:20;18.10;99.90
23102;DHT22;11720;51.214;22.574;2022-09-27T13:46:50;18.40;99.90
23102;DHT22;11720;51.214;22.574;2022-09-27T13:49:25;18.30;99.90
23102;DHT22;11720;51.214;22.574;2022-09-27T14:00:03;17.70;99.90
23102;DHT22;11720;51.214;22.574;2022-09-27T14:02:37;17.50;99.90
23102;DHT22;11720;51.214;22.574;2022-09-27T14:05:10;17.30;99.90
23102;DHT22;11720;51.214;22.574;2022-09-27T14:07:43;17.30;99.90
23102;DHT22;11720;51.214;22.574;2022-09-27T14:10:13;17.30;99.90
23102;DHT22;11720;51.214;22.574;2022-09-27T14:12:40;17.20;99.90
23102;DHT22;11720;51.214;22.574;2022-09-27T14:15:08;17.10;99.90
23102;DHT22;11720;51.214;22.574;2022-09-27T14:17:40;17.00;99.90
23102;DHT22;11720;51.214;22.574;2022-09-27T14:22:56;16.90;99.90
23102;DHT22;11720;51.214;22.574;2022-09-27T14:25:22;16.80;99.90
23102;DHT22;11720;51.214;22.574;2022-09-27T14:27:50;16.70;99.90
23102;DHT22;11720;51.214;22.574;2022-09-27T14:30:22;16.60;99.90
23102;DHT22;11720;51.214;22.574;2022-09-27T14:32:49;16.60;99.90
23102;DHT22;11720;51.214;22.574;2022-09-27T14:35:20;16.50;99.90
23102;DHT22;11720;51.214;22.574;2022-09-27T14:38:28;16.40;99.90
23102;DHT22;11720;51.214;22.574;2022-09-27T14:41:00;16.40;99.90
23102;DHT22;11720;51.214;22.574;2022-09-27T14:43:27;16.30;99.90
23102;DHT22;11720;51.214;22.574;2022-09-27T14:45:59;16.30;99.90
23102;DHT22;11720;51.214;22.574;2022-09-27T14:48:31;16.30;99.90
23102;DHT22;11720;51.214;22.574;2022-09-27T14:50:59;16.20;99.90
23102;DHT22;11720;51.214;22.574;2022-09-27T14:53:30;16.00;99.90
23102;DHT22;11720;51.214;22.574;2022-09-27T14:55:58;16.00;99.90
23102;DHT22;11720;51.214;22.574;2022-09-27T14:58:25;15.90;99.90
23102;DHT22;11720;51.214;22.574;2022-09-27T15:00:51;15.80;99.90
23102;DHT22;11720;51.214;22.574;2022-09-27T15:03:31;15.80;99.90
23102;DHT22;11720;51.214;22.574;2022-09-27T15:05:58;15.60;99.90
23102;DHT22;11720;51.214;22.574;2022-09-27T15:08:27;15.70;99.90
23102;DHT22;11720;51.214;22.574;2022-09-27T15:10:55;15.60;99.90
23102;DHT22;11720;51.214;22.574;2022-09-27T15:13:22;15.50;99.90
23102;DHT22;11720;51.214;22.574;2022-09-27T15:15:49;15.50;99.90
23102;DHT22;11720;51.214;22.574;2022-09-27T15:20:58;15.40;99.90
23102;DHT22;11720;51.214;22.574;2022-09-27T15:23:26;15.40;99.90
23102;DHT22;11720;51.214;22.574;2022-09-27T15:28:27;15.30;99.90
23102;DHT22;11720;51.214;22.574;2022-09-27T15:30:57;15.20;99.90
23102;DHT22;11720;51.214;22.574;2022-09-27T15:33:26;15.20;99.90
23102;DHT22;11720;51.214;22.574;2022-09-27T15:35:58;15.10;99.90
23102;DHT22;11720;51.214;22.574;2022-09-27T15:38:37;15.00;99.90
23102;DHT22;11720;51.214;22.574;2022-09-27T15:41:13;15.00;99.90
23102;DHT22;11720;51.214;22.574;2022-09-27T15:43:47;14.90;99.90
23102;DHT22;11720;51.214;22.574;2022-09-27T15:46:32;14.80;99.90
23102;DHT22;11720;51.214;22.574;2022-09-27T15:49:20;14.80;99.90
23102;DHT22;11720;51.214;22.574;2022-09-27T15:51:58;14.70;99.90
23102;DHT22;11720;51.214;22.574;2022-09-27T15:54:26;14.60;99.90
23102;DHT22;11720;51.214;22.574;2022-09-27T15:56:55;14.60;99.90
23102;DHT22;11720;51.214;22.574;2022-09-27T15:59:24;14.50;99.90
23102;DHT22;11720;51.214;22.574;2022-09-27T16:01:57;14.50;99.90
23102;DHT22;11720;51.214;22.574;2022-09-27T16:04:24;14.40;99.90
23102;DHT22;11720;51.214;22.574;2022-09-27T16:06:51;14.30;99.90
23102;DHT22;11720;51.214;22.574;2022-09-27T16:09:18;14.30;99.90
23102;DHT22;11720;51.214;22.574;2022-09-27T16:11:48;14.20;99.90
23102;DHT22;11720;51.214;22.574;2022-09-27T16:14:15;14.10;99.90
23102;DHT22;11720;51.214;22.574;2022-09-27T16:16:48;14.00;99.90
23102;DHT22;11720;51.214;22.574;2022-09-27T16:19:15;13.90;99.90
23102;DHT22;11720;51.214;22.574;2022-09-27T16:21:41;13.90;99.90
23102;DHT22;11720;51.214;22.574;2022-09-27T16:24:10;13.80;99.90
23102;DHT22;11720;51.214;22.574;2022-09-27T16:26:37;13.80;99.90
23102;DHT22;11720;51.214;22.574;2022-09-27T16:29:03;13.70;99.90
23102;DHT22;11720;51.214;22.574;2022-09-27T16:31:29;13.60;99.90
23102;DHT22;11720;51.214;22.574;2022-09-27T16:33:54;13.60;99.90
23102;DHT22;11720;51.214;22.574;2022-09-27T16:36:20;13.50;99.90
23102;DHT22;11720;51.214;22.574;2022-09-27T16:38:50;13.50;99.90
23102;DHT22;11720;51.214;22.574;2022-09-27T16:41:16;13.40;99.90
23102;DHT22;11720;51.214;22.574;2022-09-27T16:43:42;13.40;99.90
23102;DHT22;11720;51.214;22.574;2022-09-27T16:46:10;13.30;99.90
23102;DHT22;11720;51.214;22.574;2022-09-27T16:48:38;13.30;99.90
23102;DHT22;11720;51.214;22.574;2022-09-27T16:51:12;13.20;99.90
23102;DHT22;11720;51.214;22.574;2022-09-27T16:53:56;13.20;99.90
23102;DHT22;11720;51.214;22.574;2022-09-27T16:56:22;13.10;99.90
23102;DHT22;11720;51.214;22.574;2022-09-27T16:58:48;13.10;99.90
23102;DHT22;11720;51.214;22.574;2022-09-27T17:01:14;13.10;99.90
23102;DHT22;11720;51.214;22.574;2022-09-27T17:03:42;13.10;99.90
23102;DHT22;11720;51.214;22.574;2022-09-27T17:06:08;13.00;99.90
23102;DHT22;11720;51.214;22.574;2022-09-27T17:08:34;13.10;99.90
23102;DHT22;11720;51.214;22.574;2022-09-27T17:11:00;13.00;99.90
23102;DHT22;11720;51.214;22.574;2022-09-27T17:13:26;13.00;99.90
23102;DHT22;11720;51.214;22.574;2022-09-27T17:15:51;13.20;99.90
23102;DHT22;11720;51.214;22.574;2022-09-27T17:18:17;12.90;99.90
23102;DHT22;11720;51.214;22.574;2022-09-27T17:20:43;12.90;99.90
23102;DHT22;11720;51.214;22.574;2022-09-27T17:23:09;12.80;99.90
23102;DHT22;11720;51.214;22.574;2022-09-27T17:25:34;12.80;99.90
23102;DHT22;11720;51.214;22.574;2022-09-27T17:28:00;12.70;99.90
23102;DHT22;11720;51.214;22.574;2022-09-27T17:30:26;12.70;99.90
23102;DHT22;11720;51.214;22.574;2022-09-27T17:32:51;12.60;99.90
23102;DHT22;11720;51.214;22.574;2022-09-27T17:35:17;12.60;99.90
23102;DHT22;11720;51.214;22.574;2022-09-27T17:37:44;12.60;99.90
23102;DHT22;11720;51.214;22.574;2022-09-27T17:40:10;12.50;99.90
23102;DHT22;11720;51.214;22.574;2022-09-27T17:42:37;12.50;99.90
23102;DHT22;11720;51.214;22.574;2022-09-27T17:45:03;12.50;99.90
23102;DHT22;11720;51.214;22.574;2022-09-27T17:47:28;12.40;99.90
23102;DHT22;11720;51.214;22.574;2022-09-27T17:50:12;12.40;99.90
23102;DHT22;11720;51.214;22.574;2022-09-27T17:52:52;12.40;99.90
23102;DHT22;11720;51.214;22.574;2022-09-27T17:55:18;12.30;99.90
23102;DHT22;11720;51.214;22.574;2022-09-27T17:57:46;12.20;99.90
23102;DHT22;11720;51.214;22.574;2022-09-27T18:00:13;12.20;99.90
23102;DHT22;11720;51.214;22.574;2022-09-27T18:02:39;12.10;99.90
23102;DHT22;11720;51.214;22.574;2022-09-27T18:05:05;12.10;99.90
23102;DHT22;11720;51.214;22.574;2022-09-27T18:07:31;12.10;99.90
23102;DHT22;11720;51.214;22.574;2022-09-27T18:09:58;12.40;99.90
23102;DHT22;11720;51.214;22.574;2022-09-27T18:12:26;12.00;99.90
23102;DHT22;11720;51.214;22.574;2022-09-27T18:14:57;12.00;99.90
23102;DHT22;11720;51.214;22.574;2022-09-27T18:17:23;11.90;99.90
23102;DHT22;11720;51.214;22.574;2022-09-27T18:19:49;11.90;99.90
23102;DHT22;11720;51.214;22.574;2022-09-27T18:22:14;11.90;99.90